sensor_id;sensor_type;location;lat;lon;timestamp;pressure;altitude;pressure_sealevel;temperature;humidity
58955;BME280;45815;52.334;5.024;2023-04-09T00:00:36;102679.22;;;9.91;100.00
58955;BME280;45815;52.334;5.024;2023-04-09T00:03:01;102680.09;;;9.91;100.00
58955;BME280;45815;52.334;5.024;2023-04-09T00:05:27;102681.09;;;9.93;100.00
58955;BME280;45815;52.334;5.024;2023-04-09T00:07:52;102674.03;;;9.92;100.00
58955;BME280;45815;52.334;5.024;2023-04-09T00:10:18;102676.66;;;9.92;100.00
58955;BME280;45815;52.334;5.024;2023-04-09T00:12:43;102673.22;;;9.93;100.00
58955;BME280;45815;52.334;5.024;2023-04-09T00:15:09;102676.75;;;9.94;100.00
58955;BME280;45815;52.334;5.024;2023-04-09T00:17:35;102676.84;;;9.96;100.00
58955;BME280;45815;52.334;5.024;2023-04-09T00:20:00;102659.22;;;9.93;100.00
58955;BME280;45815;52.334;5.024;2023-04-09T00:22:26;102664.69;;;9.98;100.00
58955;BME280;45815;52.334;5.024;2023-04-09T00:24:51;102662.06;;;9.98;100.00
58955;BME280;45815;52.334;5.024;2023-04-09T00:27:16;102669.09;;;9.99;100.00
58955;BME280;45815;52.334;5.024;2023-04-09T00:29:42;102663.06;;;10.00;100.00
58955;BME280;45815;52.334;5.024;2023-04-09T00:32:07;102664.84;;;10.01;100.00
58955;BME280;45815;52.334;5.024;2023-04-09T00:34:33;102661.38;;;10.02;100.00
58955;BME280;45815;52.334;5.024;2023-04-09T00:36:58;102656.13;;;10.02;100.00
58955;BME280;45815;52.334;5.024;2023-04-09T00:39:24;102650.97;;;10.03;100.00
58955;BME280;45815;52.334;5.024;2023-04-09T00:42:00;102646.56;;;10.02;100.00
58955;BME280;45815;52.334;5.024;2023-04-09T00:44:27;102651.81;;;10.02;100.00
58955;BME280;45815;52.334;5.024;2023-04-09T00:46:53;102646.63;;;10.04;100.00
58955;BME280;45815;52.334;5.024;2023-04-09T00:49:19;102649.25;;;10.04;100.00
58955;BME280;45815;52.334;5.024;2023-04-09T00:51:45;102644.09;;;10.05;100.00
58955;BME280;45815;52.334;5.024;2023-04-09T00:54:11;102646.72;;;10.05;100.00
58955;BME280;45815;52.334;5.024;2023-04-09T00:56:37;102653.69;;;10.05;100.00
58955;BME280;45815;52.334;5.024;2023-04-09T00:59:03;102638.00;;;10.06;100.00
58955;BME280;45815;52.334;5.024;2023-04-09T01:01:28;102639.81;;;10.07;100.00
58955;BME280;45815;52.334;5.024;2023-04-09T01:03:54;102640.72;;;10.08;100.00
58955;BME280;45815;52.334;5.024;2023-04-09T01:09:20;102635.75;;;9.96;100.00
58955;BME280;45815;52.334;5.024;2023-04-09T01:15:06;102628.63;;;9.93;100.00
58955;BME280;45815;52.334;5.024;2023-04-09T01:18:00;102627.88;;;9.96;100.00
58955;BME280;45815;52.334;5.024;2023-04-09T01:20:34;102632.47;;;10.00;100.00
58955;BME280;45815;52.334;5.024;2023-04-09T01:23:15;102629.66;;;9.97;100.00
58955;BME280;45815;52.334;5.024;2023-04-09T01:28:22;102622.72;;;9.98;100.00
58955;BME280;45815;52.334;5.024;2023-04-09T01:31:01;102618.06;;;9.92;100.00
58955;BME280;45815;52.334;5.024;2023-04-09T01:33:29;102626.34;;;10.00;100.00
58955;BME280;45815;52.334;5.024;2023-04-09T01:35:56;102628.25;;;10.04;100.00
58955;BME280;45815;52.334;5.024;2023-04-09T01:38:22;102625.63;;;10.04;100.00
58955;BME280;45815;52.334;5.024;2023-04-09T01:40:49;102626.63;;;10.06;100.00
58955;BME280;45815;52.334;5.024;2023-04-09T01:43:15;102629.25;;;10.06;100.00
58955;BME280;45815;52.334;5.024;2023-04-09T01:45:44;102633.69;;;10.07;100.00
58955;BME280;45815;52.334;5.024;2023-04-09T01:48:12;102615.84;;;10.00;100.00
58955;BME280;45815;52.334;5.024;2023-04-09T01:50:38;102629.31;;;10.07;100.00
58955;BME280;45815;52.334;5.024;2023-04-09T01:53:04;102630.97;;;10.05;100.00
58955;BME280;45815;52.334;5.024;2023-04-09T01:55:30;102637.13;;;10.06;100.00
58955;BME280;45815;52.334;5.024;2023-04-09T01:57:56;102633.59;;;10.05;100.00
58955;BME280;45815;52.334;5.024;2023-04-09T02:00:23;102631.56;;;10.00;100.00
58955;BME280;45815;52.334;5.024;2023-04-09T02:03:10;102636.28;;;9.89;100.00
58955;BME280;45815;52.334;5.024;2023-04-09T02:05:43;102636.50;;;9.93;100.00
58955;BME280;45815;52.334;5.024;2023-04-09T02:08:12;102635.75;;;9.96;100.00
58955;BME280;45815;52.334;5.024;2023-04-09T02:10:43;102634.03;;;9.97;100.00
58955;BME280;45815;52.334;5.024;2023-04-09T02:13:18;102626.16;;;9.97;100.00
58955;BME280;45815;52.334;5.024;2023-04-09T02:15:45;102626.16;;;9.97;100.00
58955;BME280;45815;52.334;5.024;2023-04-09T02:18:24;102626.81;;;9.92;100.00
58955;BME280;45815;52.334;5.024;2023-04-09T02:20:52;102627.97;;;9.98;100.00
58955;BME280;45815;52.334;5.024;2023-04-09T02:23:17;102622.56;;;9.94;100.00
58955;BME280;45815;52.334;5.024;2023-04-09T02:25:43;102627.00;;;9.96;100.00
58955;BME280;45815;52.334;5.024;2023-04-09T02:28:08;102626.00;;;9.93;100.00
58955;BME280;45815;52.334;5.024;2023-04-09T02:30:34;102619.78;;;9.91;100.00
58955;BME280;45815;52.334;5.024;2023-04-09T02:32:59;102616.28;;;9.91;100.00
58955;BME280;45815;52.334;5.024;2023-04-09T02:35:25;102608.03;;;9.83;100.00
58955;BME280;45815;52.334;5.024;2023-04-09T02:37:50;102614.44;;;9.90;100.00
58955;BME280;45815;52.334;5.024;2023-04-09T02:40:15;102621.50;;;9.91;100.00
58955;BME280;45815;52.334;5.024;2023-04-09T02:42:41;102616.28;;;9.91;100.00
58955;BME280;45815;52.334;5.024;2023-04-09T02:45:07;102618.94;;;9.92;100.00
58955;BME280;45815;52.334;5.024;2023-04-09T02:47:32;102613.69;;;9.92;100.00
58955;BME280;45815;52.334;5.024;2023-04-09T02:49:58;102608.44;;;9.92;100.00
58955;BME280;45815;52.334;5.024;2023-04-09T02:52:24;102605.03;;;9.93;100.00
58955;BME280;45815;52.334;5.024;2023-04-09T02:54:51;102610.28;;;9.93;100.00
58955;BME280;45815;52.334;5.024;2023-04-09T02:57:17;102601.41;;;9.91;100.00
58955;BME280;45815;52.334;5.024;2023-04-09T02:59:43;102604.88;;;9.90;100.00
58955;BME280;45815;52.334;5.024;2023-04-09T03:02:09;102585.13;;;9.81;100.00
58955;BME280;45815;52.334;5.024;2023-04-09T03:04:35;102596.94;;;9.89;100.00
58955;BME280;45815;52.334;5.024;2023-04-09T03:07:00;102597.81;;;9.89;100.00
58955;BME280;45815;52.334;5.024;2023-04-09T03:09:26;102603.97;;;9.90;100.00
58955;BME280;45815;52.334;5.024;2023-04-09T03:11:51;102587.31;;;9.89;100.00
58955;BME280;45815;52.334;5.024;2023-04-09T03:14:17;102589.88;;;9.88;100.00
58955;BME280;45815;52.334;5.024;2023-04-09T03:16:43;102585.53;;;9.88;100.00
58955;BME280;45815;52.334;5.024;2023-04-09T03:19:08;102587.31;;;9.89;100.00
58955;BME280;45815;52.334;5.024;2023-04-09T03:21:35;102585.59;;;9.90;100.00
58955;BME280;45815;52.334;5.024;2023-04-09T03:24:01;102584.63;;;9.88;100.00
58955;BME280;45815;52.334;5.024;2023-04-09T03:26:26;102587.25;;;9.88;100.00
58955;BME280;45815;52.334;5.024;2023-04-09T03:28:51;102585.53;;;9.88;100.00
58955;BME280;45815;52.334;5.024;2023-04-09T03:31:17;102583.72;;;9.87;100.00
58955;BME280;45815;52.334;5.024;2023-04-09T03:33:44;102575.06;;;9.88;100.00
58955;BME280;45815;52.334;5.024;2023-04-09T03:36:10;102579.47;;;9.89;100.00
58955;BME280;45815;52.334;5.024;2023-04-09T03:38:52;102570.69;;;9.89;100.00
58955;BME280;45815;52.334;5.024;2023-04-09T03:41:26;102570.69;;;9.89;100.00
58955;BME280;45815;52.334;5.024;2023-04-09T03:43:53;102569.81;;;9.88;100.00
58955;BME280;45815;52.334;5.024;2023-04-09T03:46:22;102568.06;;;9.89;100.00
58955;BME280;45815;52.334;5.024;2023-04-09T03:48:49;102561.09;;;9.89;100.00
58955;BME280;45815;52.334;5.024;2023-04-09T03:51:16;102566.34;;;9.89;100.00
58955;BME280;45815;52.334;5.024;2023-04-09T03:53:48;102563.72;;;9.89;100.00
58955;BME280;45815;52.334;5.024;2023-04-09T03:56:13;102562.75;;;9.87;100.00
58955;BME280;45815;52.334;5.024;2023-04-09T03:58:39;102561.00;;;9.88;100.00
58955;BME280;45815;52.334;5.024;2023-04-09T04:01:07;102561.09;;;9.89;100.00
58955;BME280;45815;52.334;5.024;2023-04-09T04:03:40;102560.13;;;9.87;100.00
58955;BME280;45815;52.334;5.024;2023-04-09T04:06:25;102553.91;;;9.85;100.00
58955;BME280;45815;52.334;5.024;2023-04-09T04:09:15;102554.72;;;9.84;100.00
58955;BME280;45815;52.334;5.024;2023-04-09T04:11:46;102547.75;;;9.85;100.00
58955;BME280;45815;52.334;5.024;2023-04-09T04:14:12;102545.22;;;9.86;100.00
58955;BME280;45815;52.334;5.024;2023-04-09T04:16:39;102546.13;;;9.87;100.00
58955;BME280;45815;52.334;5.024;2023-04-09T04:19:06;102547.00;;;9.87;100.00
58955;BME280;45815;52.334;5.024;2023-04-09T04:21:39;102545.22;;;9.86;100.00
58955;BME280;45815;52.334;5.024;2023-04-09T04:24:05;102545.22;;;9.86;100.00
58955;BME280;45815;52.334;5.024;2023-04-09T04:26:30;102552.19;;;9.86;100.00
58955;BME280;45815;52.334;5.024;2023-04-09T04:28:56;102554.81;;;9.86;100.00
58955;BME280;45815;52.334;5.024;2023-04-09T04:31:35;102548.66;;;9.85;100.00
58955;BME280;45815;52.334;5.024;2023-04-09T04:34:01;102547.72;;;9.83;100.00
58955;BME280;45815;52.334;5.024;2023-04-09T04:36:27;102546.88;;;9.84;100.00
58955;BME280;45815;52.334;5.024;2023-04-09T04:38:52;102552.13;;;9.84;100.00
58955;BME280;45815;52.334;5.024;2023-04-09T04:41:28;102549.25;;;9.80;100.00
58955;BME280;45815;52.334;5.024;2023-04-09T04:44:05;102549.34;;;9.81;100.00
58955;BME280;45815;52.334;5.024;2023-04-09T04:46:30;102555.47;;;9.82;100.00
58955;BME280;45815;52.334;5.024;2023-04-09T04:48:56;102556.38;;;9.82;100.00
58955;BME280;45815;52.334;5.024;2023-04-09T04:51:21;102552.94;;;9.83;100.00
58955;BME280;45815;52.334;5.024;2023-04-09T04:53:59;102557.34;;;9.84;100.00
58955;BME280;45815;52.334;5.024;2023-04-09T04:56:24;102556.53;;;9.85;100.00
58955;BME280;45815;52.334;5.024;2023-04-09T04:59:00;102556.53;;;9.85;100.00
58955;BME280;45815;52.334;5.024;2023-04-09T05:01:27;102560.88;;;9.85;100.00
58955;BME280;45815;52.334;5.024;2023-04-09T05:03:52;102562.69;;;9.86;100.00
58955;BME280;45815;52.334;5.024;2023-04-09T05:06:24;102564.38;;;9.85;100.00
58955;BME280;45815;52.334;5.024;2023-04-09T05:08:51;102564.47;;;9.87;100.00
58955;BME280;45815;52.334;5.024;2023-04-09T05:11:16;102559.13;;;9.85;100.00
58955;BME280;45815;52.334;5.024;2023-04-09T05:13:45;102552.25;;;9.87;100.00
58955;BME280;45815;52.334;5.024;2023-04-09T05:16:19;102559.00;;;9.82;100.00
58955;BME280;45815;52.334;5.024;2023-04-09T05:18:51;102565.13;;;9.83;100.00
58955;BME280;45815;52.334;5.024;2023-04-09T05:21:17;102569.63;;;9.85;100.00
58955;BME280;45815;52.334;5.024;2023-04-09T05:23:43;102560.06;;;9.86;100.00
58955;BME280;45815;52.334;5.024;2023-04-09T05:26:08;102563.59;;;9.86;100.00
58955;BME280;45815;52.334;5.024;2023-04-09T05:28:45;102566.19;;;9.86;100.00
58955;BME280;45815;52.334;5.024;2023-04-09T05:31:15;102569.72;;;9.87;100.00
58955;BME280;45815;52.334;5.024;2023-04-09T05:34:01;102572.34;;;9.87;100.00
58955;BME280;45815;52.334;5.024;2023-04-09T05:36:37;102565.09;;;9.81;100.00
58955;BME280;45815;52.334;5.024;2023-04-09T05:39:02;102576.69;;;9.86;100.00
58955;BME280;45815;52.334;5.024;2023-04-09T05:41:29;102577.59;;;9.87;100.00
58955;BME280;45815;52.334;5.024;2023-04-09T05:44:15;102569.34;;;9.79;100.00
58955;BME280;45815;52.334;5.024;2023-04-09T05:46:41;102572.88;;;9.80;100.00
58955;BME280;45815;52.334;5.024;2023-04-09T05:49:07;102571.13;;;9.80;100.00
58955;BME280;45815;52.334;5.024;2023-04-09T05:51:34;102571.31;;;9.83;100.00
58955;BME280;45815;52.334;5.024;2023-04-09T05:54:00;102570.69;;;9.89;100.00
58955;BME280;45815;52.334;5.024;2023-04-09T05:56:30;102577.81;;;9.91;100.00
58955;BME280;45815;52.334;5.024;2023-04-09T05:58:55;102573.56;;;9.93;100.00
58955;BME280;45815;52.334;5.024;2023-04-09T06:01:21;102570.09;;;9.94;100.00
58955;BME280;45815;52.334;5.024;2023-04-09T06:03:47;102567.69;;;9.99;100.00
58955;BME280;45815;52.334;5.024;2023-04-09T06:06:13;102572.88;;;9.98;100.00
58955;BME280;45815;52.334;5.024;2023-04-09T06:08:38;102576.41;;;9.98;100.00
58955;BME280;45815;52.334;5.024;2023-04-09T06:11:08;102578.03;;;9.96;100.00
58955;BME280;45815;52.334;5.024;2023-04-09T06:13:34;102582.53;;;9.99;100.00
58955;BME280;45815;52.334;5.024;2023-04-09T06:16:05;102573.69;;;9.97;100.00
58955;BME280;45815;52.334;5.024;2023-04-09T06:18:31;102584.19;;;9.97;100.00
58955;BME280;45815;52.334;5.024;2023-04-09T06:21:07;102581.34;;;9.92;100.00
58955;BME280;45815;52.334;5.024;2023-04-09T06:23:34;102584.13;;;9.95;100.00
58955;BME280;45815;52.334;5.024;2023-04-09T06:26:00;102575.06;;;9.88;100.00
58955;BME280;45815;52.334;5.024;2023-04-09T06:28:26;102576.84;;;9.89;100.00
58955;BME280;45815;52.334;5.024;2023-04-09T06:30:52;102589.44;;;9.97;100.00
58955;BME280;45815;52.334;5.024;2023-04-09T06:33:18;102597.38;;;9.98;100.00
58955;BME280;45815;52.334;5.024;2023-04-09T06:35:44;102597.16;;;9.93;100.00
58955;BME280;45815;52.334;5.024;2023-04-09T06:38:10;102590.09;;;9.92;100.00
58955;BME280;45815;52.334;5.024;2023-04-09T06:40:37;102592.72;;;9.92;100.00
58955;BME280;45815;52.334;5.024;2023-04-09T06:43:03;102591.44;;;9.84;100.00
58955;BME280;45815;52.334;5.024;2023-04-09T06:45:36;102589.56;;;9.82;100.00
58955;BME280;45815;52.334;5.024;2023-04-09T06:48:02;102588.50;;;9.78;100.00
58955;BME280;45815;52.334;5.024;2023-04-09T06:50:28;102589.50;;;9.80;100.00
58955;BME280;45815;52.334;5.024;2023-04-09T06:52:53;102591.22;;;9.80;100.00
58955;BME280;45815;52.334;5.024;2023-04-09T06:55:19;102582.28;;;9.76;100.00
58955;BME280;45815;52.334;5.024;2023-04-09T06:57:44;102594.22;;;9.87;100.00
58955;BME280;45815;52.334;5.024;2023-04-09T07:00:10;102584.78;;;9.91;100.00
58955;BME280;45815;52.334;5.024;2023-04-09T07:02:36;102593.63;;;9.93;100.00
58955;BME280;45815;52.334;5.024;2023-04-09T07:05:02;102585.81;;;9.94;100.00
58955;BME280;45815;52.334;5.024;2023-04-09T07:07:28;102591.25;;;9.98;100.00
58955;BME280;45815;52.334;5.024;2023-04-09T07:09:54;102593.03;;;9.99;100.00
58955;BME280;45815;52.334;5.024;2023-04-09T07:12:30;102596.50;;;9.98;100.00
58955;BME280;45815;52.334;5.024;2023-04-09T07:15:03;102597.66;;;10.04;100.00
58955;BME280;45815;52.334;5.024;2023-04-09T07:17:30;102598.88;;;10.11;100.00
58955;BME280;45815;52.334;5.024;2023-04-09T07:19:55;102597.31;;;10.14;100.00
58955;BME280;45815;52.334;5.024;2023-04-09T07:22:21;102595.59;;;10.15;100.00
58955;BME280;45815;52.334;5.024;2023-04-09T07:24:47;102578.72;;;10.10;100.00
58955;BME280;45815;52.334;5.024;2023-04-09T07:27:18;102588.56;;;10.14;100.00
58955;BME280;45815;52.334;5.024;2023-04-09T07:29:44;102592.88;;;10.13;100.00
58955;BME280;45815;52.334;5.024;2023-04-09T07:32:10;102596.47;;;10.15;100.00
58955;BME280;45815;52.334;5.024;2023-04-09T07:34:36;102595.44;;;10.12;100.00
58955;BME280;45815;52.334;5.024;2023-04-09T07:37:01;102596.44;;;10.14;100.00
58955;BME280;45815;52.334;5.024;2023-04-09T07:39:27;102590.34;;;10.15;100.00
58955;BME280;45815;52.334;5.024;2023-04-09T07:41:52;102596.56;;;10.17;100.00
58955;BME280;45815;52.334;5.024;2023-04-09T07:44:18;102599.31;;;10.20;100.00
58955;BME280;45815;52.334;5.024;2023-04-09T07:46:43;102598.53;;;10.21;100.00
58955;BME280;45815;52.334;5.024;2023-04-09T07:49:09;102583.44;;;10.17;100.00
58955;BME280;45815;52.334;5.024;2023-04-09T07:51:34;102596.03;;;10.24;100.00
58955;BME280;45815;52.334;5.024;2023-04-09T07:53:59;102595.28;;;10.27;100.00
58955;BME280;45815;52.334;5.024;2023-04-09T07:56:25;102595.41;;;10.28;100.00
58955;BME280;45815;52.334;5.024;2023-04-09T07:58:50;102594.56;;;10.29;100.00
58955;BME280;45815;52.334;5.024;2023-04-09T08:01:16;102596.53;;;10.33;100.00
58955;BME280;45815;52.334;5.024;2023-04-09T08:03:41;102594.88;;;10.35;100.00
58955;BME280;45815;52.334;5.024;2023-04-09T08:06:06;102591.56;;;10.40;100.00
58955;BME280;45815;52.334;5.024;2023-04-09T08:08:32;102594.19;;;10.40;100.00
58955;BME280;45815;52.334;5.024;2023-04-09T08:10:58;102595.97;;;10.41;100.00
58955;BME280;45815;52.334;5.024;2023-04-09T08:13:23;102593.44;;;10.42;100.00
58955;BME280;45815;52.334;5.024;2023-04-09T08:15:51;102596.97;;;10.43;100.00
58955;BME280;45815;52.334;5.024;2023-04-09T08:18:17;102592.59;;;10.43;100.00
58955;BME280;45815;52.334;5.024;2023-04-09T08:20:42;102597.09;;;10.46;100.00
58955;BME280;45815;52.334;5.024;2023-04-09T08:23:12;102601.53;;;10.47;100.00
58955;BME280;45815;52.334;5.024;2023-04-09T08:25:37;102598.22;;;10.51;100.00
58955;BME280;45815;52.334;5.024;2023-04-09T08:28:03;102593.78;;;10.50;100.00
58955;BME280;45815;52.334;5.024;2023-04-09T08:30:29;102595.66;;;10.52;100.00
58955;BME280;45815;52.334;5.024;2023-04-09T08:32:55;102594.09;;;10.56;100.00
58955;BME280;45815;52.334;5.024;2023-04-09T08:35:20;102588.84;;;10.56;100.00
58955;BME280;45815;52.334;5.024;2023-04-09T08:37:46;102593.25;;;10.57;100.00
58955;BME280;45815;52.334;5.024;2023-04-09T08:40:11;102588.91;;;10.57;100.00
58955;BME280;45815;52.334;5.024;2023-04-09T08:42:43;102590.63;;;10.57;100.00
58955;BME280;45815;52.334;5.024;2023-04-09T08:45:10;102595.25;;;10.63;100.00
58955;BME280;45815;52.334;5.024;2023-04-09T08:47:37;102585.59;;;10.62;100.00
58955;BME280;45815;52.334;5.024;2023-04-09T08:50:05;102592.03;;;10.68;100.00
58955;BME280;45815;52.334;5.024;2023-04-09T08:52:32;102591.19;;;10.69;100.00
58955;BME280;45815;52.334;5.024;2023-04-09T08:54:57;102589.53;;;10.71;100.00
58955;BME280;45815;52.334;5.024;2023-04-09T08:57:23;102593.28;;;10.76;100.00
58955;BME280;45815;52.334;5.024;2023-04-09T08:59:48;102584.84;;;10.84;100.00
58955;BME280;45815;52.334;5.024;2023-04-09T09:02:14;102593.16;;;10.93;100.00
58955;BME280;45815;52.334;5.024;2023-04-09T09:04:47;102582.25;;;11.03;100.00
58955;BME280;45815;52.334;5.024;2023-04-09T09:07:14;102578.50;;;11.17;100.00
58955;BME280;45815;52.334;5.024;2023-04-09T09:09:55;102581.16;;;11.17;100.00
58955;BME280;45815;52.334;5.024;2023-04-09T09:12:46;102560.38;;;11.24;100.00
58955;BME280;45815;52.334;5.024;2023-04-09T09:15:25;102566.44;;;11.42;100.00
58955;BME280;45815;52.334;5.024;2023-04-09T09:17:56;102557.03;;;11.47;100.00
58955;BME280;45815;52.334;5.024;2023-04-09T09:20:23;102568.25;;;11.64;100.00
58955;BME280;45815;52.334;5.024;2023-04-09T09:22:53;102569.53;;;11.74;100.00
58955;BME280;45815;52.334;5.024;2023-04-09T09:25:18;102563.78;;;11.82;100.00
58955;BME280;45815;52.334;5.024;2023-04-09T09:27:47;102570.34;;;11.92;100.00
58955;BME280;45815;52.334;5.024;2023-04-09T09:30:20;102566.25;;;11.99;100.00
58955;BME280;45815;52.334;5.024;2023-04-09T09:32:50;102568.59;;;12.14;100.00
58955;BME280;45815;52.334;5.024;2023-04-09T09:35:16;102575.03;;;12.22;100.00
58955;BME280;45815;52.334;5.024;2023-04-09T09:37:41;102571.59;;;12.23;100.00
58955;BME280;45815;52.334;5.024;2023-04-09T09:40:07;102571.78;;;12.28;100.00
58955;BME280;45815;52.334;5.024;2023-04-09T09:42:33;102563.53;;;12.41;100.00
58955;BME280;45815;52.334;5.024;2023-04-09T09:44:59;102560.13;;;12.43;100.00
58955;BME280;45815;52.334;5.024;2023-04-09T09:47:25;102560.34;;;12.50;100.00
58955;BME280;45815;52.334;5.024;2023-04-09T09:49:53;102562.16;;;12.51;100.00
58955;BME280;45815;52.334;5.024;2023-04-09T09:52:25;102563.72;;;12.45;100.00
58955;BME280;45815;52.334;5.024;2023-04-09T09:54:52;102559.34;;;12.46;100.00
58955;BME280;45815;52.334;5.024;2023-04-09T09:57:19;102551.47;;;12.48;100.00
58955;BME280;45815;52.334;5.024;2023-04-09T10:00:05;102560.91;;;12.41;100.00
58955;BME280;45815;52.334;5.024;2023-04-09T10:03:18;102559.97;;;12.40;100.00
58955;BME280;45815;52.334;5.024;2023-04-09T10:05:40;102554.09;;;12.48;100.00
58955;BME280;45815;52.334;5.024;2023-04-09T10:08:08;102550.03;;;12.56;100.00
58955;BME280;45815;52.334;5.024;2023-04-09T10:10:34;102539.75;;;12.62;100.00
58955;BME280;45815;52.334;5.024;2023-04-09T10:13:01;102544.25;;;12.64;100.00
58955;BME280;45815;52.334;5.024;2023-04-09T10:15:27;102529.06;;;12.59;100.00
58955;BME280;45815;52.334;5.024;2023-04-09T10:17:54;102530.50;;;12.73;100.00
58955;BME280;45815;52.334;5.024;2023-04-09T10:20:31;102535.94;;;12.78;100.00
58955;BME280;45815;52.334;5.024;2023-04-09T10:23:05;102535.44;;;12.88;100.00
58955;BME280;45815;52.334;5.024;2023-04-09T10:25:34;102514.63;;;12.96;100.00
58955;BME280;45815;52.334;5.024;2023-04-09T10:28:00;102511.38;;;13.03;100.00
58955;BME280;45815;52.334;5.024;2023-04-09T10:30:35;102514.41;;;13.14;100.00
58955;BME280;45815;52.334;5.024;2023-04-09T10:33:12;102509.69;;;13.29;100.00
58955;BME280;45815;52.334;5.024;2023-04-09T10:35:37;102500.66;;;13.48;100.00
58955;BME280;45815;52.334;5.024;2023-04-09T10:38:06;102505.75;;;13.69;100.00
58955;BME280;45815;52.334;5.024;2023-04-09T10:40:32;102502.13;;;13.92;100.00
58955;BME280;45815;52.334;5.024;2023-04-09T10:42:58;102499.09;;;14.09;100.00
58955;BME280;45815;52.334;5.024;2023-04-09T10:45:38;102494.16;;;14.20;100.00
58955;BME280;45815;52.334;5.024;2023-04-09T10:48:03;102491.16;;;14.36;100.00
58955;BME280;45815;52.334;5.024;2023-04-09T10:50:31;102477.66;;;14.55;100.00
58955;BME280;45815;52.334;5.024;2023-04-09T10:52:57;102483.34;;;14.69;100.00
58955;BME280;45815;52.334;5.024;2023-04-09T10:55:40;102475.19;;;14.93;100.00
58955;BME280;45815;52.334;5.024;2023-04-09T10:58:10;102485.75;;;14.93;100.00
58955;BME280;45815;52.334;5.024;2023-04-09T11:00:38;102487.31;;;14.85;100.00
58955;BME280;45815;52.334;5.024;2023-04-09T11:06:01;102488.94;;;14.80;100.00
58955;BME280;45815;52.334;5.024;2023-04-09T11:08:29;102480.19;;;14.83;100.00
58955;BME280;45815;52.334;5.024;2023-04-09T11:10:55;102480.72;;;15.03;100.00
58955;BME280;45815;52.334;5.024;2023-04-09T11:13:23;102469.56;;;15.14;100.00
58955;BME280;45815;52.334;5.024;2023-04-09T11:15:48;102470.03;;;15.31;100.00
58955;BME280;45815;52.334;5.024;2023-04-09T11:18:25;102474.97;;;15.52;100.00
58955;BME280;45815;52.334;5.024;2023-04-09T11:20:54;102466.97;;;15.86;100.00
58955;BME280;45815;52.334;5.024;2023-04-09T11:23:20;102456.50;;;15.92;100.00
58955;BME280;45815;52.334;5.024;2023-04-09T11:25:49;102459.13;;;15.90;100.00
58955;BME280;45815;52.334;5.024;2023-04-09T11:28:15;102461.28;;;16.07;100.00
58955;BME280;45815;52.334;5.024;2023-04-09T11:30:41;102452.81;;;16.24;100.00
58955;BME280;45815;52.334;5.024;2023-04-09T11:33:07;102452.47;;;16.50;100.00
58955;BME280;45815;52.334;5.024;2023-04-09T11:35:34;102447.53;;;16.68;100.00
58955;BME280;45815;52.334;5.024;2023-04-09T11:38:09;102444.56;;;16.96;100.00
58955;BME280;45815;52.334;5.024;2023-04-09T11:40:36;102446.53;;;17.07;100.00
58955;BME280;45815;52.334;5.024;2023-04-09T11:43:07;102445.75;;;17.13;100.00
58955;BME280;45815;52.334;5.024;2023-04-09T11:45:33;102440.13;;;16.96;100.00
58955;BME280;45815;52.334;5.024;2023-04-09T11:47:59;102445.00;;;17.22;100.00
58955;BME280;45815;52.334;5.024;2023-04-09T11:50:26;102435.72;;;17.48;100.00
58955;BME280;45815;52.334;5.024;2023-04-09T11:52:51;102428.13;;;17.73;100.00
58955;BME280;45815;52.334;5.024;2023-04-09T11:55:24;102431.91;;;17.87;100.00
58955;BME280;45815;52.334;5.024;2023-04-09T11:57:52;102426.91;;;18.09;100.00
58955;BME280;45815;52.334;5.024;2023-04-09T12:00:18;102422.72;;;18.28;100.00
58955;BME280;45815;52.334;5.024;2023-04-09T12:02:46;102425.53;;;18.42;100.00
58955;BME280;45815;52.334;5.024;2023-04-09T12:05:23;102427.44;;;18.52;100.00
58955;BME280;45815;52.334;5.024;2023-04-09T12:07:49;102440.16;;;18.77;100.00
58955;BME280;45815;52.334;5.024;2023-04-09T12:10:15;102438.56;;;18.95;100.00
58955;BME280;45815;52.334;5.024;2023-04-09T12:12:46;102434.19;;;19.00;100.00
58955;BME280;45815;52.334;5.024;2023-04-09T12:15:17;102434.03;;;18.86;100.00
58955;BME280;45815;52.334;5.024;2023-04-09T12:17:48;102433.31;;;19.01;100.00
58955;BME280;45815;52.334;5.024;2023-04-09T12:20:28;102431.06;;;18.60;100.00
58955;BME280;45815;52.334;5.024;2023-04-09T12:22:55;102429.13;;;18.47;100.00
58955;BME280;45815;52.334;5.024;2023-04-09T12:25:20;102430.06;;;18.47;100.00
58955;BME280;45815;52.334;5.024;2023-04-09T12:27:46;102433.41;;;18.32;100.00
58955;BME280;45815;52.334;5.024;2023-04-09T12:30:11;102430.81;;;18.35;100.00
58955;BME280;45815;52.334;5.024;2023-04-09T12:32:37;102423.59;;;18.28;100.00
58955;BME280;45815;52.334;5.024;2023-04-09T12:35:03;102427.28;;;18.40;100.00
58955;BME280;45815;52.334;5.024;2023-04-09T12:37:29;102432.94;;;18.69;100.00
58955;BME280;45815;52.334;5.024;2023-04-09T12:39:54;102429.13;;;18.44;100.00
58955;BME280;45815;52.334;5.024;2023-04-09T12:42:20;102427.34;;;18.43;100.00
58955;BME280;45815;52.334;5.024;2023-04-09T12:44:46;102424.66;;;18.41;100.00
58955;BME280;45815;52.334;5.024;2023-04-09T12:47:11;102415.78;;;18.42;100.00
58955;BME280;45815;52.334;5.024;2023-04-09T12:49:37;102427.59;;;18.64;100.00
58955;BME280;45815;52.334;5.024;2023-04-09T12:52:03;102420.34;;;18.51;100.00
58955;BME280;45815;52.334;5.024;2023-04-09T12:54:28;102415.19;;;18.66;100.00
58955;BME280;45815;52.334;5.024;2023-04-09T12:56:53;102419.09;;;18.97;100.00
58955;BME280;45815;52.334;5.024;2023-04-09T12:59:19;102422.88;;;19.23;100.00
58955;BME280;45815;52.334;5.024;2023-04-09T13:01:44;102430.72;;;19.10;100.00